sensor_id;sensor_type;location;lat;lon;timestamp;temperature;humidity
21033;DHT22;10675;47.976;7.824;2023-06-22T00:01:18;20.70;99.90
21033;DHT22;10675;47.976;7.824;2023-06-22T00:03:44;20.70;99.90
21033;DHT22;10675;47.976;7.824;2023-06-22T00:06:09;20.80;99.90
21033;DHT22;10675;47.976;7.824;2023-06-22T00:08:35;20.80;99.90
21033;DHT22;10675;47.976;7.824;2023-06-22T00:11:00;20.80;99.90
21033;DHT22;10675;47.976;7.824;2023-06-22T00:13:26;20.80;99.90
21033;DHT22;10675;47.976;7.824;2023-06-22T00:15:51;20.90;99.90
21033;DHT22;10675;47.976;7.824;2023-06-22T00:18:17;20.80;99.90
21033;DHT22;10675;47.976;7.824;2023-06-22T00:20:43;20.70;99.90
21033;DHT22;10675;47.976;7.824;2023-06-22T00:23:11;20.70;99.90
21033;DHT22;10675;47.976;7.824;2023-06-22T00:25:40;20.70;99.90
21033;DHT22;10675;47.976;7.824;2023-06-22T00:28:06;20.80;99.90
21033;DHT22;10675;47.976;7.824;2023-06-22T00:30:33;20.70;99.90
21033;DHT22;10675;47.976;7.824;2023-06-22T00:32:59;20.60;99.90
21033;DHT22;10675;47.976;7.824;2023-06-22T00:35:26;20.60;99.90
21033;DHT22;10675;47.976;7.824;2023-06-22T00:37:58;20.60;99.90
21033;DHT22;10675;47.976;7.824;2023-06-22T00:40:28;20.60;99.90
21033;DHT22;10675;47.976;7.824;2023-06-22T00:42:54;20.50;99.90
21033;DHT22;10675;47.976;7.824;2023-06-22T00:45:20;20.40;99.90
21033;DHT22;10675;47.976;7.824;2023-06-22T00:47:47;20.40;99.90
21033;DHT22;10675;47.976;7.824;2023-06-22T00:50:18;20.40;99.90
21033;DHT22;10675;47.976;7.824;2023-06-22T00:52:53;20.40;99.90
21033;DHT22;10675;47.976;7.824;2023-06-22T00:55:22;20.50;99.90
21033;DHT22;10675;47.976;7.824;2023-06-22T00:57:48;20.40;99.90
21033;DHT22;10675;47.976;7.824;2023-06-22T01:00:18;20.30;99.90
21033;DHT22;10675;47.976;7.824;2023-06-22T01:02:45;20.30;99.90
21033;DHT22;10675;47.976;7.824;2023-06-22T01:05:13;20.20;99.90
21033;DHT22;10675;47.976;7.824;2023-06-22T01:08:05;20.30;99.90
21033;DHT22;10675;47.976;7.824;2023-06-22T01:16:17;20.00;99.90
21033;DHT22;10675;47.976;7.824;2023-06-22T01:18:44;20.10;99.90
21033;DHT22;10675;47.976;7.824;2023-06-22T01:21:15;20.20;99.90
21033;DHT22;10675;47.976;7.824;2023-06-22T01:23:53;20.20;99.90
21033;DHT22;10675;47.976;7.824;2023-06-22T01:26:37;20.00;99.90
21033;DHT22;10675;47.976;7.824;2023-06-22T01:29:04;20.00;99.90
21033;DHT22;10675;47.976;7.824;2023-06-22T01:31:31;20.10;99.90
21033;DHT22;10675;47.976;7.824;2023-06-22T01:34:01;20.00;99.90
21033;DHT22;10675;47.976;7.824;2023-06-22T01:36:28;20.00;99.90
21033;DHT22;10675;47.976;7.824;2023-06-22T01:38:54;20.00;99.90
21033;DHT22;10675;47.976;7.824;2023-06-22T01:41:24;20.00;99.90
21033;DHT22;10675;47.976;7.824;2023-06-22T01:43:50;20.10;99.90
21033;DHT22;10675;47.976;7.824;2023-06-22T01:46:16;20.10;99.90
21033;DHT22;10675;47.976;7.824;2023-06-22T01:48:44;19.90;99.90
21033;DHT22;10675;47.976;7.824;2023-06-22T01:51:10;19.80;99.90
21033;DHT22;10675;47.976;7.824;2023-06-22T01:53:36;19.70;99.90
21033;DHT22;10675;47.976;7.824;2023-06-22T01:56:02;19.70;99.90
21033;DHT22;10675;47.976;7.824;2023-06-22T01:58:29;19.70;99.90
21033;DHT22;10675;47.976;7.824;2023-06-22T02:01:03;19.70;99.90
21033;DHT22;10675;47.976;7.824;2023-06-22T02:04:06;19.80;99.90
21033;DHT22;10675;47.976;7.824;2023-06-22T02:06:37;19.80;99.90
21033;DHT22;10675;47.976;7.824;2023-06-22T02:09:15;19.80;99.90
21033;DHT22;10675;47.976;7.824;2023-06-22T02:11:44;19.60;99.90
21033;DHT22;10675;47.976;7.824;2023-06-22T02:14:12;19.50;99.90
21033;DHT22;10675;47.976;7.824;2023-06-22T02:16:38;19.50;99.90
21033;DHT22;10675;47.976;7.824;2023-06-22T02:19:04;19.50;99.90
21033;DHT22;10675;47.976;7.824;2023-06-22T02:21:31;19.50;99.90
21033;DHT22;10675;47.976;7.824;2023-06-22T02:23:57;19.40;99.90
21033;DHT22;10675;47.976;7.824;2023-06-22T02:26:24;19.40;99.90
21033;DHT22;10675;47.976;7.824;2023-06-22T02:28:50;19.50;99.90
21033;DHT22;10675;47.976;7.824;2023-06-22T02:31:16;19.40;99.90
21033;DHT22;10675;47.976;7.824;2023-06-22T02:33:41;19.30;99.90
21033;DHT22;10675;47.976;7.824;2023-06-22T02:36:07;19.40;99.90
21033;DHT22;10675;47.976;7.824;2023-06-22T02:38:35;19.30;99.90
21033;DHT22;10675;47.976;7.824;2023-06-22T02:41:02;19.30;99.90
21033;DHT22;10675;47.976;7.824;2023-06-22T02:43:27;19.30;99.90
21033;DHT22;10675;47.976;7.824;2023-06-22T02:45:53;19.40;99.90
21033;DHT22;10675;47.976;7.824;2023-06-22T02:48:19;19.40;99.90
21033;DHT22;10675;47.976;7.824;2023-06-22T02:50:44;19.30;99.90
21033;DHT22;10675;47.976;7.824;2023-06-22T02:53:10;19.30;99.90
21033;DHT22;10675;47.976;7.824;2023-06-22T02:55:36;19.30;99.90
21033;DHT22;10675;47.976;7.824;2023-06-22T02:58:02;19.20;99.90
21033;DHT22;10675;47.976;7.824;2023-06-22T03:00:30;19.30;99.90
21033;DHT22;10675;47.976;7.824;2023-06-22T03:02:56;19.20;99.90
21033;DHT22;10675;47.976;7.824;2023-06-22T03:05:23;19.20;99.90
21033;DHT22;10675;47.976;7.824;2023-06-22T03:07:49;19.20;99.90
21033;DHT22;10675;47.976;7.824;2023-06-22T03:10:16;19.20;99.90
21033;DHT22;10675;47.976;7.824;2023-06-22T03:12:42;19.10;99.90
21033;DHT22;10675;47.976;7.824;2023-06-22T03:15:10;19.10;99.90
21033;DHT22;10675;47.976;7.824;2023-06-22T03:17:37;19.10;99.90
21033;DHT22;10675;47.976;7.824;2023-06-22T03:20:05;19.00;99.90
21033;DHT22;10675;47.976;7.824;2023-06-22T03:22:43;19.10;99.90
21033;DHT22;10675;47.976;7.824;2023-06-22T03:25:09;19.00;99.90
21033;DHT22;10675;47.976;7.824;2023-06-22T03:27:41;19.10;99.90
21033;DHT22;10675;47.976;7.824;2023-06-22T03:30:09;19.10;99.90
21033;DHT22;10675;47.976;7.824;2023-06-22T03:32:35;19.10;99.90
21033;DHT22;10675;47.976;7.824;2023-06-22T03:35:01;19.10;99.90
21033;DHT22;10675;47.976;7.824;2023-06-22T03:37:28;19.10;99.90
21033;DHT22;10675;47.976;7.824;2023-06-22T03:39:54;19.00;99.90
21033;DHT22;10675;47.976;7.824;2023-06-22T03:42:19;19.00;99.90
21033;DHT22;10675;47.976;7.824;2023-06-22T03:44:45;19.00;99.90
21033;DHT22;10675;47.976;7.824;2023-06-22T03:47:10;19.00;99.90
21033;DHT22;10675;47.976;7.824;2023-06-22T03:49:36;19.10;99.90
21033;DHT22;10675;47.976;7.824;2023-06-22T03:52:02;19.10;99.90
21033;DHT22;10675;47.976;7.824;2023-06-22T03:54:31;19.10;99.90
21033;DHT22;10675;47.976;7.824;2023-06-22T03:56:57;19.10;99.90
21033;DHT22;10675;47.976;7.824;2023-06-22T03:59:23;19.10;99.90
21033;DHT22;10675;47.976;7.824;2023-06-22T04:01:49;19.10;99.90
21033;DHT22;10675;47.976;7.824;2023-06-22T04:04:17;19.20;99.90
21033;DHT22;10675;47.976;7.824;2023-06-22T04:06:42;19.20;99.90
21033;DHT22;10675;47.976;7.824;2023-06-22T04:09:08;19.00;99.90
21033;DHT22;10675;47.976;7.824;2023-06-22T04:11:33;19.00;99.90
21033;DHT22;10675;47.976;7.824;2023-06-22T04:13:59;18.90;99.90
21033;DHT22;10675;47.976;7.824;2023-06-22T04:16:24;19.00;99.90
21033;DHT22;10675;47.976;7.824;2023-06-22T04:18:50;19.00;99.90
21033;DHT22;10675;47.976;7.824;2023-06-22T04:21:15;19.00;99.90
21033;DHT22;10675;47.976;7.824;2023-06-22T04:23:41;19.00;99.90
21033;DHT22;10675;47.976;7.824;2023-06-22T04:26:08;19.10;99.90
21033;DHT22;10675;47.976;7.824;2023-06-22T04:28:33;19.10;99.90
21033;DHT22;10675;47.976;7.824;2023-06-22T04:31:01;19.10;99.90
21033;DHT22;10675;47.976;7.824;2023-06-22T04:33:27;19.20;99.90
21033;DHT22;10675;47.976;7.824;2023-06-22T04:35:54;19.30;99.90
21033;DHT22;10675;47.976;7.824;2023-06-22T04:38:22;19.40;99.90
21033;DHT22;10675;47.976;7.824;2023-06-22T04:40:48;19.40;99.90
21033;DHT22;10675;47.976;7.824;2023-06-22T04:43:13;19.40;99.90
21033;DHT22;10675;47.976;7.824;2023-06-22T04:45:39;19.50;99.90
21033;DHT22;10675;47.976;7.824;2023-06-22T04:48:05;19.50;99.90
21033;DHT22;10675;47.976;7.824;2023-06-22T04:50:31;19.50;99.90
21033;DHT22;10675;47.976;7.824;2023-06-22T04:52:56;19.60;99.90
21033;DHT22;10675;47.976;7.824;2023-06-22T04:55:23;19.70;99.90
21033;DHT22;10675;47.976;7.824;2023-06-22T04:57:51;19.80;99.90
21033;DHT22;10675;47.976;7.824;2023-06-22T05:00:20;19.80;99.90
21033;DHT22;10675;47.976;7.824;2023-06-22T05:02:48;19.80;99.90
21033;DHT22;10675;47.976;7.824;2023-06-22T05:05:14;20.00;99.90
21033;DHT22;10675;47.976;7.824;2023-06-22T05:07:44;20.10;99.90
21033;DHT22;10675;47.976;7.824;2023-06-22T05:10:11;20.10;99.90
21033;DHT22;10675;47.976;7.824;2023-06-22T05:12:38;20.20;99.90
21033;DHT22;10675;47.976;7.824;2023-06-22T05:15:04;20.30;99.90
21033;DHT22;10675;47.976;7.824;2023-06-22T05:17:30;20.50;99.90
21033;DHT22;10675;47.976;7.824;2023-06-22T05:19:55;20.50;99.90
21033;DHT22;10675;47.976;7.824;2023-06-22T05:22:21;20.60;99.90
21033;DHT22;10675;47.976;7.824;2023-06-22T05:24:47;20.70;99.90
21033;DHT22;10675;47.976;7.824;2023-06-22T05:27:13;20.80;99.90
21033;DHT22;10675;47.976;7.824;2023-06-22T05:29:39;20.80;99.90
21033;DHT22;10675;47.976;7.824;2023-06-22T05:32:05;20.70;99.90
21033;DHT22;10675;47.976;7.824;2023-06-22T05:34:31;20.80;99.90
21033;DHT22;10675;47.976;7.824;2023-06-22T05:36:57;20.90;99.90
21033;DHT22;10675;47.976;7.824;2023-06-22T05:39:24;20.90;99.90
21033;DHT22;10675;47.976;7.824;2023-06-22T05:41:49;21.00;99.90
21033;DHT22;10675;47.976;7.824;2023-06-22T05:44:15;21.00;99.90
21033;DHT22;10675;47.976;7.824;2023-06-22T05:46:42;21.10;99.90
21033;DHT22;10675;47.976;7.824;2023-06-22T05:49:14;21.30;99.90
21033;DHT22;10675;47.976;7.824;2023-06-22T05:51:41;21.30;99.90
21033;DHT22;10675;47.976;7.824;2023-06-22T05:54:07;21.30;99.90
21033;DHT22;10675;47.976;7.824;2023-06-22T05:56:34;21.40;99.90
21033;DHT22;10675;47.976;7.824;2023-06-22T05:58:59;21.40;99.90
21033;DHT22;10675;47.976;7.824;2023-06-22T06:01:25;21.50;99.90
21033;DHT22;10675;47.976;7.824;2023-06-22T06:03:51;21.60;99.90
21033;DHT22;10675;47.976;7.824;2023-06-22T06:06:18;21.50;99.90
21033;DHT22;10675;47.976;7.824;2023-06-22T06:08:46;21.60;99.90
21033;DHT22;10675;47.976;7.824;2023-06-22T06:11:12;21.70;99.90
21033;DHT22;10675;47.976;7.824;2023-06-22T06:13:37;21.60;99.90
21033;DHT22;10675;47.976;7.824;2023-06-22T06:16:03;21.70;99.90
21033;DHT22;10675;47.976;7.824;2023-06-22T06:18:28;21.80;99.90
21033;DHT22;10675;47.976;7.824;2023-06-22T06:20:54;21.70;99.90
21033;DHT22;10675;47.976;7.824;2023-06-22T06:23:19;21.70;99.90
21033;DHT22;10675;47.976;7.824;2023-06-22T06:25:45;21.70;99.90
21033;DHT22;10675;47.976;7.824;2023-06-22T06:28:10;21.80;99.90
21033;DHT22;10675;47.976;7.824;2023-06-22T06:30:36;21.80;99.90
21033;DHT22;10675;47.976;7.824;2023-06-22T06:33:02;21.90;99.90
21033;DHT22;10675;47.976;7.824;2023-06-22T06:35:28;22.20;99.90
21033;DHT22;10675;47.976;7.824;2023-06-22T06:37:53;22.40;99.90
21033;DHT22;10675;47.976;7.824;2023-06-22T06:40:19;22.70;99.90
21033;DHT22;10675;47.976;7.824;2023-06-22T06:42:47;22.80;99.90
21033;DHT22;10675;47.976;7.824;2023-06-22T06:45:16;22.70;99.90
21033;DHT22;10675;47.976;7.824;2023-06-22T06:47:41;22.80;99.90
21033;DHT22;10675;47.976;7.824;2023-06-22T06:50:08;22.80;99.90
21033;DHT22;10675;47.976;7.824;2023-06-22T06:52:33;22.60;99.90
21033;DHT22;10675;47.976;7.824;2023-06-22T06:54:59;22.50;99.90
21033;DHT22;10675;47.976;7.824;2023-06-22T06:57:25;22.50;99.90
21033;DHT22;10675;47.976;7.824;2023-06-22T06:59:57;22.50;99.90
21033;DHT22;10675;47.976;7.824;2023-06-22T07:02:23;22.50;99.90
21033;DHT22;10675;47.976;7.824;2023-06-22T07:04:49;22.50;99.90
21033;DHT22;10675;47.976;7.824;2023-06-22T07:07:15;22.40;99.90
21033;DHT22;10675;47.976;7.824;2023-06-22T07:09:40;22.30;99.90
21033;DHT22;10675;47.976;7.824;2023-06-22T07:12:06;22.30;99.90
21033;DHT22;10675;47.976;7.824;2023-06-22T07:14:32;22.40;99.90
21033;DHT22;10675;47.976;7.824;2023-06-22T07:16:58;22.90;99.90
21033;DHT22;10675;47.976;7.824;2023-06-22T07:19:27;23.10;99.90
21033;DHT22;10675;47.976;7.824;2023-06-22T07:21:53;23.20;99.90
21033;DHT22;10675;47.976;7.824;2023-06-22T07:24:20;23.20;99.90
21033;DHT22;10675;47.976;7.824;2023-06-22T07:26:47;23.30;99.90
21033;DHT22;10675;47.976;7.824;2023-06-22T07:29:13;23.30;99.90
21033;DHT22;10675;47.976;7.824;2023-06-22T07:31:39;23.30;99.90
21033;DHT22;10675;47.976;7.824;2023-06-22T07:34:06;23.40;99.90
21033;DHT22;10675;47.976;7.824;2023-06-22T07:36:32;23.40;99.90
21033;DHT22;10675;47.976;7.824;2023-06-22T07:38:57;23.30;99.90
21033;DHT22;10675;47.976;7.824;2023-06-22T07:41:23;23.30;99.90
21033;DHT22;10675;47.976;7.824;2023-06-22T07:43:49;23.10;99.90
21033;DHT22;10675;47.976;7.824;2023-06-22T07:46:15;22.90;99.90
21033;DHT22;10675;47.976;7.824;2023-06-22T07:48:40;22.70;99.90
21033;DHT22;10675;47.976;7.824;2023-06-22T07:51:07;22.80;99.90
21033;DHT22;10675;47.976;7.824;2023-06-22T07:53:32;22.90;99.90
21033;DHT22;10675;47.976;7.824;2023-06-22T07:55:58;23.00;99.90
21033;DHT22;10675;47.976;7.824;2023-06-22T07:58:24;23.30;99.90
21033;DHT22;10675;47.976;7.824;2023-06-22T08:00:49;23.60;99.90
21033;DHT22;10675;47.976;7.824;2023-06-22T08:03:15;23.70;99.90
21033;DHT22;10675;47.976;7.824;2023-06-22T08:05:40;23.80;99.90
21033;DHT22;10675;47.976;7.824;2023-06-22T08:08:06;23.80;99.90
21033;DHT22;10675;47.976;7.824;2023-06-22T08:10:31;24.10;99.90
21033;DHT22;10675;47.976;7.824;2023-06-22T08:12:57;24.10;99.90
21033;DHT22;10675;47.976;7.824;2023-06-22T08:15:22;24.20;99.90
21033;DHT22;10675;47.976;7.824;2023-06-22T08:17:48;24.20;99.90
21033;DHT22;10675;47.976;7.824;2023-06-22T08:20:14;24.40;99.90
21033;DHT22;10675;47.976;7.824;2023-06-22T08:22:41;24.40;99.90
21033;DHT22;10675;47.976;7.824;2023-06-22T08:25:07;24.50;99.90
21033;DHT22;10675;47.976;7.824;2023-06-22T08:27:33;24.50;99.90
21033;DHT22;10675;47.976;7.824;2023-06-22T08:29:59;24.60;99.90
21033;DHT22;10675;47.976;7.824;2023-06-22T08:32:28;24.80;99.90
21033;DHT22;10675;47.976;7.824;2023-06-22T08:34:55;25.10;99.90
21033;DHT22;10675;47.976;7.824;2023-06-22T08:37:20;25.50;99.90
21033;DHT22;10675;47.976;7.824;2023-06-22T08:39:46;25.70;99.90
21033;DHT22;10675;47.976;7.824;2023-06-22T08:42:12;25.90;99.90
21033;DHT22;10675;47.976;7.824;2023-06-22T08:44:37;26.00;99.90
21033;DHT22;10675;47.976;7.824;2023-06-22T08:47:03;26.10;99.90
21033;DHT22;10675;47.976;7.824;2023-06-22T08:49:29;26.40;99.90
21033;DHT22;10675;47.976;7.824;2023-06-22T08:51:54;26.50;99.90
21033;DHT22;10675;47.976;7.824;2023-06-22T08:54:22;26.40;99.90
21033;DHT22;10675;47.976;7.824;2023-06-22T08:56:47;26.40;99.90
21033;DHT22;10675;47.976;7.824;2023-06-22T08:59:13;26.40;99.90
21033;DHT22;10675;47.976;7.824;2023-06-22T09:01:39;26.40;99.90
21033;DHT22;10675;47.976;7.824;2023-06-22T09:04:04;26.40;99.90
21033;DHT22;10675;47.976;7.824;2023-06-22T09:06:31;26.40;99.90
21033;DHT22;10675;47.976;7.824;2023-06-22T09:08:57;26.20;99.90
21033;DHT22;10675;47.976;7.824;2023-06-22T09:11:25;26.30;99.90
21033;DHT22;10675;47.976;7.824;2023-06-22T09:13:50;26.40;99.90
21033;DHT22;10675;47.976;7.824;2023-06-22T09:16:17;26.60;99.90
21033;DHT22;10675;47.976;7.824;2023-06-22T09:18:46;26.70;99.90
21033;DHT22;10675;47.976;7.824;2023-06-22T09:21:12;26.80;99.90
21033;DHT22;10675;47.976;7.824;2023-06-22T09:23:37;27.00;99.90
21033;DHT22;10675;47.976;7.824;2023-06-22T09:26:03;27.40;99.90
21033;DHT22;10675;47.976;7.824;2023-06-22T09:28:29;27.60;99.90
21033;DHT22;10675;47.976;7.824;2023-06-22T09:30:55;27.50;98.70
21033;DHT22;10675;47.976;7.824;2023-06-22T09:33:24;27.60;99.70
21033;DHT22;10675;47.976;7.824;2023-06-22T09:35:49;27.80;98.60
21033;DHT22;10675;47.976;7.824;2023-06-22T09:38:16;28.00;98.00
21033;DHT22;10675;47.976;7.824;2023-06-22T09:40:42;28.10;96.90
21033;DHT22;10675;47.976;7.824;2023-06-22T09:43:08;28.10;96.40
21033;DHT22;10675;47.976;7.824;2023-06-22T09:45:33;28.10;95.80
21033;DHT22;10675;47.976;7.824;2023-06-22T09:47:59;28.10;95.70
21033;DHT22;10675;47.976;7.824;2023-06-22T09:50:24;28.10;95.20
21033;DHT22;10675;47.976;7.824;2023-06-22T09:52:50;28.40;96.70
21033;DHT22;10675;47.976;7.824;2023-06-22T09:55:23;28.40;95.60
21033;DHT22;10675;47.976;7.824;2023-06-22T09:57:48;28.30;95.50
21033;DHT22;10675;47.976;7.824;2023-06-22T10:00:16;28.50;95.40
21033;DHT22;10675;47.976;7.824;2023-06-22T10:02:42;28.60;96.40
21033;DHT22;10675;47.976;7.824;2023-06-22T10:05:08;28.80;96.40
21033;DHT22;10675;47.976;7.824;2023-06-22T10:07:34;28.70;96.10
21033;DHT22;10675;47.976;7.824;2023-06-22T10:09:59;28.60;94.30
21033;DHT22;10675;47.976;7.824;2023-06-22T10:12:27;28.60;94.20
21033;DHT22;10675;47.976;7.824;2023-06-22T10:14:53;28.70;93.90
21033;DHT22;10675;47.976;7.824;2023-06-22T10:17:18;28.80;94.50
21033;DHT22;10675;47.976;7.824;2023-06-22T10:19:44;28.80;94.10
21033;DHT22;10675;47.976;7.824;2023-06-22T10:22:09;29.20;93.10
21033;DHT22;10675;47.976;7.824;2023-06-22T10:24:35;29.30;93.80
21033;DHT22;10675;47.976;7.824;2023-06-22T10:27:00;29.40;92.60
21033;DHT22;10675;47.976;7.824;2023-06-22T10:29:26;29.20;91.50
21033;DHT22;10675;47.976;7.824;2023-06-22T10:31:51;29.20;91.10
21033;DHT22;10675;47.976;7.824;2023-06-22T10:34:17;29.10;91.00
21033;DHT22;10675;47.976;7.824;2023-06-22T10:36:42;29.10;90.80
21033;DHT22;10675;47.976;7.824;2023-06-22T10:39:08;29.00;91.20
21033;DHT22;10675;47.976;7.824;2023-06-22T10:41:34;28.90;91.70
21033;DHT22;10675;47.976;7.824;2023-06-22T10:44:00;28.70;92.00
21033;DHT22;10675;47.976;7.824;2023-06-22T10:46:25;28.40;93.60
21033;DHT22;10675;47.976;7.824;2023-06-22T10:48:51;28.30;95.20
21033;DHT22;10675;47.976;7.824;2023-06-22T10:51:19;28.00;96.30
21033;DHT22;10675;47.976;7.824;2023-06-22T10:53:45;28.00;97.20
21033;DHT22;10675;47.976;7.824;2023-06-22T10:56:10;28.10;96.70
21033;DHT22;10675;47.976;7.824;2023-06-22T10:58:36;28.20;97.00
21033;DHT22;10675;47.976;7.824;2023-06-22T11:01:01;28.40;96.50
21033;DHT22;10675;47.976;7.824;2023-06-22T11:03:28;28.40;96.30
21033;DHT22;10675;47.976;7.824;2023-06-22T11:05:54;28.50;97.00
21033;DHT22;10675;47.976;7.824;2023-06-22T11:08:19;28.50;96.60
21033;DHT22;10675;47.976;7.824;2023-06-22T11:10:45;28.50;97.00
21033;DHT22;10675;47.976;7.824;2023-06-22T11:13:11;28.50;96.50
21033;DHT22;10675;47.976;7.824;2023-06-22T11:15:36;28.60;96.50
21033;DHT22;10675;47.976;7.824;2023-06-22T11:18:02;28.80;96.70
21033;DHT22;10675;47.976;7.824;2023-06-22T11:20:27;28.70;96.80
21033;DHT22;10675;47.976;7.824;2023-06-22T11:22:53;28.80;96.90
21033;DHT22;10675;47.976;7.824;2023-06-22T11:25:18;28.80;97.30
21033;DHT22;10675;47.976;7.824;2023-06-22T11:27:45;29.00;97.30
21033;DHT22;10675;47.976;7.824;2023-06-22T11:30:10;29.00;96.10
21033;DHT22;10675;47.976;7.824;2023-06-22T11:32:36;29.10;96.20
21033;DHT22;10675;47.976;7.824;2023-06-22T11:35:01;29.00;95.80
21033;DHT22;10675;47.976;7.824;2023-06-22T11:37:27;28.80;95.40
21033;DHT22;10675;47.976;7.824;2023-06-22T11:39:53;28.80;95.90
21033;DHT22;10675;47.976;7.824;2023-06-22T11:42:20;28.80;96.40
21033;DHT22;10675;47.976;7.824;2023-06-22T11:44:46;28.80;96.20
21033;DHT22;10675;47.976;7.824;2023-06-22T11:47:11;28.70;96.80
21033;DHT22;10675;47.976;7.824;2023-06-22T11:49:37;28.50;96.70
21033;DHT22;10675;47.976;7.824;2023-06-22T11:52:03;28.40;96.00
21033;DHT22;10675;47.976;7.824;2023-06-22T11:54:28;28.30;97.50
21033;DHT22;10675;47.976;7.824;2023-06-22T11:56:54;28.20;96.90
21033;DHT22;10675;47.976;7.824;2023-06-22T11:59:19;28.20;97.80
21033;DHT22;10675;47.976;7.824;2023-06-22T12:01:46;28.20;98.60
21033;DHT22;10675;47.976;7.824;2023-06-22T12:04:12;28.30;99.20
21033;DHT22;10675;47.976;7.824;2023-06-22T12:06:38;28.30;99.80
21033;DHT22;10675;47.976;7.824;2023-06-22T12:09:07;28.40;99.60
21033;DHT22;10675;47.976;7.824;2023-06-22T12:11:32;28.30;99.90
21033;DHT22;10675;47.976;7.824;2023-06-22T12:13:58;28.40;99.90
21033;DHT22;10675;47.976;7.824;2023-06-22T12:16:27;28.30;99.90
21033;DHT22;10675;47.976;7.824;2023-06-22T12:18:53;28.30;98.70
21033;DHT22;10675;47.976;7.824;2023-06-22T12:21:19;28.40;98.40
21033;DHT22;10675;47.976;7.824;2023-06-22T12:23:44;28.30;98.70
21033;DHT22;10675;47.976;7.824;2023-06-22T12:26:10;28.10;99.30
21033;DHT22;10675;47.976;7.824;2023-06-22T12:28:35;27.80;99.90
21033;DHT22;10675;47.976;7.824;2023-06-22T12:31:01;27.60;99.90
21033;DHT22;10675;47.976;7.824;2023-06-22T12:33:26;27.40;99.90
21033;DHT22;10675;47.976;7.824;2023-06-22T12:35:52;27.40;99.90
21033;DHT22;10675;47.976;7.824;2023-06-22T12:38:17;27.20;99.90
21033;DHT22;10675;47.976;7.824;2023-06-22T12:40:43;27.30;99.90
21033;DHT22;10675;47.976;7.824;2023-06-22T12:43:08;27.30;99.90
21033;DHT22;10675;47.976;7.824;2023-06-22T12:45:34;27.30;98.50
21033;DHT22;10675;47.976;7.824;2023-06-22T12:48:00;27.30;98.60
21033;DHT22;10675;47.976;7.824;2023-06-22T12:50:25;27.40;98.90
21033;DHT22;10675;47.976;7.824;2023-06-22T12:52:51;27.40;99.30
21033;DHT22;10675;47.976;7.824;2023-06-22T12:55:16;27.50;99.10
21033;DHT22;10675;47.976;7.824;2023-06-22T12:57:42;27.40;99.50
21033;DHT22;10675;47.976;7.824;2023-06-22T13:00:08;27.40;99.90
21033;DHT22;10675;47.976;7.824;2023-06-22T13:02:35;27.40;99.40
21033;DHT22;10675;47.976;7.824;2023-06-22T13:05:02;27.50;99.00
21033;DHT22;10675;47.976;7.824;2023-06-22T13:07:27;27.60;98.80
21033;DHT22;10675;47.976;7.824;2023-06-22T13:09:53;27.60;98.80
21033;DHT22;10675;47.976;7.824;2023-06-22T13:12:19;27.60;97.60
21033;DHT22;10675;47.976;7.824;2023-06-22T13:14:45;27.50;97.50
21033;DHT22;10675;47.976;7.824;2023-06-22T13:17:12;27.40;98.20
21033;DHT22;10675;47.976;7.824;2023-06-22T13:19:38;27.30;98.20
21033;DHT22;10675;47.976;7.824;2023-06-22T13:22:04;27.30;98.10
21033;DHT22;10675;47.976;7.824;2023-06-22T13:24:30;27.20;98.20
21033;DHT22;10675;47.976;7.824;2023-06-22T13:26:55;27.10;98.80
21033;DHT22;10675;47.976;7.824;2023-06-22T13:29:21;27.00;97.50
21033;DHT22;10675;47.976;7.824;2023-06-22T13:31:46;26.80;98.20
21033;DHT22;10675;47.976;7.824;2023-06-22T13:34:12;26.70;98.40
21033;DHT22;10675;47.976;7.824;2023-06-22T13:36:37;26.60;99.20
21033;DHT22;10675;47.976;7.824;2023-06-22T13:39:03;26.60;98.80
21033;DHT22;10675;47.976;7.824;2023-06-22T13:41:29;26.50;98.70
21033;DHT22;10675;47.976;7.824;2023-06-22T13:43:55;26.50;98.70
21033;DHT22;10675;47.976;7.824;2023-06-22T13:46:20;26.50;97.40
21033;DHT22;10675;47.976;7.824;2023-06-22T13:48:46;26.40;97.70
21033;DHT22;10675;47.976;7.824;2023-06-22T13:51:11;26.30;98.60
21033;DHT22;10675;47.976;7.824;2023-06-22T13:53:37;26.20;98.30
21033;DHT22;10675;47.976;7.824;2023-06-22T13:56:03;26.10;98.90
21033;DHT22;10675;47.976;7.824;2023-06-22T13:58:29;26.00;99.40
21033;DHT22;10675;47.976;7.824;2023-06-22T14:00:54;25.90;99.20
21033;DHT22;10675;47.976;7.824;2023-06-22T14:03:20;25.80;99.60
21033;DHT22;10675;47.976;7.824;2023-06-22T14:05:45;25.80;99.90
21033;DHT22;10675;47.976;7.824;2023-06-22T14:08:12;25.80;99.90
21033;DHT22;10675;47.976;7.824;2023-06-22T14:10:37;25.80;99.90
21033;DHT22;10675;47.976;7.824;2023-06-22T14:13:03;25.90;99.90
21033;DHT22;10675;47.976;7.824;2023-06-22T14:15:31;25.80;99.90
21033;DHT22;10675;47.976;7.824;2023-06-22T14:17:57;25.80;99.90
21033;DHT22;10675;47.976;7.824;2023-06-22T14:20:22;25.80;99.90
21033;DHT22;10675;47.976;7.824;2023-06-22T14:22:48;25.80;99.90
21033;DHT22;10675;47.976;7.824;2023-06-22T14:25:13;25.90;99.90
21033;DHT22;10675;47.976;7.824;2023-06-22T14:27:39;26.00;99.90
21033;DHT22;10675;47.976;7.824;2023-06-22T14:30:05;26.10;99.90
21033;DHT22;10675;47.976;7.824;2023-06-22T14:32:31;26.20;99.90
21033;DHT22;10675;47.976;7.824;2023-06-22T14:34:56;26.20;99.90
21033;DHT22;10675;47.976;7.824;2023-06-22T14:37:22;26.10;99.90
21033;DHT22;10675;47.976;7.824;2023-06-22T14:39:47;26.10;99.90
21033;DHT22;10675;47.976;7.824;2023-06-22T14:42:13;26.30;99.90
21033;DHT22;10675;47.976;7.824;2023-06-22T14:44:38;26.70;99.90
21033;DHT22;10675;47.976;7.824;2023-06-22T14:47:04;27.10;99.90
21033;DHT22;10675;47.976;7.824;2023-06-22T14:49:30;27.50;99.90
21033;DHT22;10675;47.976;7.824;2023-06-22T14:51:55;27.60;98.90
21033;DHT22;10675;47.976;7.824;2023-06-22T14:54:21;27.30;98.40
21033;DHT22;10675;47.976;7.824;2023-06-22T14:56:48;27.00;97.20
21033;DHT22;10675;47.976;7.824;2023-06-22T14:59:14;26.90;97.10
21033;DHT22;10675;47.976;7.824;2023-06-22T15:01:39;26.80;97.00
21033;DHT22;10675;47.976;7.824;2023-06-22T15:04:05;26.80;98.10
21033;DHT22;10675;47.976;7.824;2023-06-22T15:06:31;26.80;98.10
21033;DHT22;10675;47.976;7.824;2023-06-22T15:08:56;26.80;97.80
21033;DHT22;10675;47.976;7.824;2023-06-22T15:11:22;26.80;96.30
21033;DHT22;10675;47.976;7.824;2023-06-22T15:13:47;27.00;96.90
21033;DHT22;10675;47.976;7.824;2023-06-22T15:16:13;27.20;96.70
21033;DHT22;10675;47.976;7.824;2023-06-22T15:18:38;27.40;96.10
21033;DHT22;10675;47.976;7.824;2023-06-22T15:21:06;27.60;94.70
21033;DHT22;10675;47.976;7.824;2023-06-22T15:23:33;27.70;95.00
21033;DHT22;10675;47.976;7.824;2023-06-22T15:26:01;27.70;93.20
21033;DHT22;10675;47.976;7.824;2023-06-22T15:28:28;27.70;93.40
21033;DHT22;10675;47.976;7.824;2023-06-22T15:30:53;27.80;93.60